Time;durP1;ratioP1;P1;durP2;ratioP2;P2;SDS_P1;SDS_P2;PMS_P1;PMS_P2;Temp;Humidity;BMP_temperature;BMP_pressure;BME280_temperature;BME280_humidity;BME280_pressure;Samples;Min_cycle;Max_cycle;Signal;HPM_P1;HPM_P2
2022/04/24 00:01:11;;;;;;;43.80;26.30;;;;;;;9.95;nan;99899.50;5088401;28;20481;-71
2022/04/24 00:03:37;;;;;;;43.45;25.58;;;;;;;9.85;nan;99901.94;5102550;28;20039;-71
2022/04/24 00:06:02;;;;;;;43.17;26.25;;;;;;;9.64;nan;99892.84;5102116;27;20118;-72
2022/04/24 00:08:28;;;;;;;43.08;26.02;;;;;;;9.71;nan;99903.22;5097780;27;20135;-71
2022/04/24 00:10:53;;;;;;;43.28;26.33;;;;;;;9.59;nan;99900.63;5107039;27;20046;-72
2022/04/24 00:13:18;;;;;;;42.25;26.58;;;;;;;9.69;nan;99907.91;5114610;27;20063;-71
2022/04/24 00:15:44;;;;;;;43.35;26.00;;;;;;;9.66;nan;99905.75;5106298;27;20051;-72
2022/04/24 00:18:09;;;;;;;41.55;25.50;;;;;;;9.61;nan;99903.03;5097044;27;20034;-71
2022/04/24 00:20:35;;;;;;;42.85;26.08;;;;;;;9.51;nan;99896.50;5093308;28;20114;-71
2022/04/24 00:23:00;;;;;;;50.20;25.52;;;;;;;9.54;nan;99901.31;5105637;27;20031;-72
2022/04/24 00:25:26;;;;;;;42.03;25.60;;;;;;;9.49;nan;99903.03;5094283;28;20044;-72
2022/04/24 00:27:52;;;;;;;41.45;25.42;;;;;;;9.40;nan;99910.44;5089772;28;20062;-71
2022/04/24 00:30:17;;;;;;;41.53;25.60;;;;;;;9.34;nan;99912.19;5107721;27;20065;-71
2022/04/24 00:32:43;;;;;;;44.05;25.23;;;;;;;9.36;nan;99912.75;5104728;28;20073;-71
2022/04/24 00:35:08;;;;;;;44.75;24.88;;;;;;;9.32;nan;99919.47;5101658;27;20498;-71
2022/04/24 00:37:34;;;;;;;45.83;25.40;;;;;;;9.24;nan;99913.75;5104585;28;20028;-71
2022/04/24 00:39:59;;;;;;;42.70;24.65;;;;;;;9.24;nan;99913.75;5095122;27;20035;-71
2022/04/24 00:42:25;;;;;;;43.30;25.80;;;;;;;9.15;nan;99914.09;5108573;27;20059;-71
2022/04/24 00:44:50;;;;;;;38.55;23.85;;;;;;;9.14;nan;99922.19;5085011;28;20039;-72
2022/04/24 00:47:17;;;;;;;40.00;24.23;;;;;;;9.08;nan;99918.66;5094293;27;20400;-71
2022/04/24 00:49:46;;;;;;;43.28;25.00;;;;;;;9.04;nan;99920.13;5102304;27;20038;-71
2022/04/24 00:52:12;;;;;;;43.80;25.87;;;;;;;9.05;nan;99915.69;5110242;27;20027;-71
2022/04/24 00:54:38;;;;;;;38.83;23.65;;;;;;;9.07;nan;99918.88;5097361;28;20028;-71
2022/04/24 00:57:12;;;;;;;42.60;25.17;;;;;;;9.03;nan;99915.94;5107535;28;20045;-72
2022/04/24 00:59:38;;;;;;;40.15;24.83;;;;;;;8.99;nan;99912.13;5093637;28;20035;-71
2022/04/24 01:02:05;;;;;;;41.63;24.63;;;;;;;8.94;nan;99904.94;5130125;27;20507;-72
2022/04/24 01:04:33;;;;;;;45.20;25.60;;;;;;;8.89;nan;99911.91;5098592;27;20031;-71
2022/04/24 01:06:59;;;;;;;42.58;26.23;;;;;;;8.91;nan;99915.91;5100267;28;20031;-71
2022/04/24 01:09:26;;;;;;;47.95;26.58;;;;;;;8.63;nan;99877.13;5114675;27;20042;-71
2022/04/24 01:11:56;;;;;;;40.70;24.70;;;;;;;8.84;nan;99907.31;5076209;28;20126;-71
2022/04/24 01:14:26;;;;;;;44.63;25.75;;;;;;;8.91;nan;99912.47;5109405;27;20519;-71
2022/04/24 01:16:53;;;;;;;40.05;24.27;;;;;;;8.83;nan;99905.72;5097512;28;20040;-71
2022/04/24 01:19:19;;;;;;;43.28;25.83;;;;;;;8.87;nan;99906.06;5106620;28;20530;-71
2022/04/24 01:21:46;;;;;;;44.25;25.13;;;;;;;8.87;nan;99909.50;5086217;28;20036;-71
2022/04/24 01:24:13;;;;;;;42.28;25.23;;;;;;;8.82;nan;99911.19;5103381;28;20093;-71
2022/04/24 01:26:38;;;;;;;43.10;23.95;;;;;;;8.78;nan;99905.59;5102373;27;20408;-71
2022/04/24 01:29:05;;;;;;;41.78;24.17;;;;;;;8.78;nan;99913.47;5115229;27;20028;-72
2022/04/24 01:31:31;;;;;;;44.45;25.65;;;;;;;8.59;nan;99896.19;5102429;28;20130;-71
2022/04/24 01:33:57;;;;;;;39.45;23.58;;;;;;;8.61;nan;99909.88;5094428;28;20081;-71
2022/04/24 01:36:23;;;;;;;39.45;23.52;;;;;;;8.64;nan;99914.69;5105412;28;20031;-71
2022/04/24 01:38:49;;;;;;;37.47;23.65;;;;;;;8.55;nan;99898.47;5104000;28;20425;-71
2022/04/24 01:41:14;;;;;;;38.00;22.65;;;;;;;8.63;nan;99916.50;5124064;27;20042;-71
2022/04/24 01:43:41;;;;;;;41.65;23.90;;;;;;;8.50;nan;99904.38;5107785;28;20046;-72
2022/04/24 01:46:08;;;;;;;35.97;22.65;;;;;;;8.54;nan;99920.47;5104017;28;20035;-70
2022/04/24 01:48:33;;;;;;;36.78;22.70;;;;;;;8.46;nan;99912.91;5099747;28;20058;-71
2022/04/24 01:51:00;;;;;;;38.28;23.00;;;;;;;8.42;nan;99919.63;5093247;28;20043;-72
2022/04/24 01:53:26;;;;;;;41.65;23.35;;;;;;;8.35;nan;99911.00;5074764;28;20044;-71
2022/04/24 01:55:52;;;;;;;36.30;22.30;;;;;;;8.29;nan;99907.47;5093769;28;20036;-71
2022/04/24 01:58:17;;;;;;;36.80;22.90;;;;;;;8.28;nan;99922.41;5104059;28;20474;-71
2022/04/24 02:00:42;;;;;;;37.58;22.42;;;;;;;8.22;nan;99912.00;5102903;28;20172;-72
2022/04/24 02:03:08;;;;;;;40.03;23.60;;;;;;;8.17;nan;99907.41;5097572;28;20097;-71
2022/04/24 02:05:33;;;;;;;36.03;22.50;;;;;;;8.18;nan;99893.25;5094356;28;20503;-71
2022/04/24 02:07:59;;;;;;;38.78;21.73;;;;;;;8.07;nan;99889.56;5096771;28;20117;-71
2022/04/24 02:10:24;;;;;;;38.75;22.10;;;;;;;8.04;nan;99884.75;5098550;28;20035;-71
2022/04/24 02:12:49;;;;;;;36.72;22.25;;;;;;;8.05;nan;99883.75;5099589;28;20771;-71
2022/04/24 02:15:18;;;;;;;38.15;22.05;;;;;;;7.91;nan;99863.16;5098308;28;20028;-72
2022/04/24 02:17:43;;;;;;;38.72;23.15;;;;;;;8.02;nan;99876.34;5094012;28;20062;-71
2022/04/24 02:20:09;;;;;;;36.72;23.60;;;;;;;7.99;nan;99862.84;5093463;28;20490;-71
2022/04/24 02:22:36;;;;;;;39.45;22.17;;;;;;;8.03;nan;99874.50;5093231;28;20027;-72
2022/04/24 02:25:02;;;;;;;38.25;23.20;;;;;;;8.06;nan;99879.28;5093154;28;20028;-71
2022/04/24 02:27:27;;;;;;;37.80;22.70;;;;;;;7.99;nan;99870.72;5107457;28;20034;-71
2022/04/24 02:29:53;;;;;;;36.83;22.25;;;;;;;8.06;nan;99874.06;5103578;28;20039;-72
2022/04/24 02:32:19;;;;;;;34.30;21.50;;;;;;;7.87;nan;99844.44;5100270;28;20035;-71
2022/04/24 02:34:45;;;;;;;36.33;21.70;;;;;;;7.94;nan;99854.84;5093711;28;20028;-71
2022/04/24 02:37:10;;;;;;;34.95;20.73;;;;;;;7.93;nan;99859.28;5104133;28;20081;-72
2022/04/24 02:39:36;;;;;;;36.92;21.27;;;;;;;7.79;nan;99844.75;5097772;28;20024;-71
2022/04/24 02:42:02;;;;;;;37.17;21.35;;;;;;;7.84;nan;99863.22;5088246;28;20040;-71
2022/04/24 02:44:27;;;;;;;34.97;21.45;;;;;;;7.88;nan;99859.97;5076990;28;20040;-72
2022/04/24 02:46:53;;;;;;;33.72;20.73;;;;;;;7.90;nan;99862.34;5109062;28;20169;-71
2022/04/24 02:49:18;;;;;;;37.35;20.67;;;;;;;7.95;nan;99866.91;5104293;28;20483;-71
2022/04/24 02:51:44;;;;;;;38.92;21.00;;;;;;;7.96;nan;99860.66;5099900;28;20076;-71
2022/04/24 02:54:10;;;;;;;35.90;20.10;;;;;;;7.92;nan;99860.28;5095906;28;20054;-72
2022/04/24 02:56:35;;;;;;;33.03;20.67;;;;;;;7.83;nan;99840.69;5103339;27;20080;-72
2022/04/24 02:59:00;;;;;;;35.55;20.25;;;;;;;7.84;nan;99853.53;5095036;28;20039;-71
2022/04/24 03:01:26;;;;;;;33.15;21.00;;;;;;;7.92;nan;99851.63;5101454;27;20036;-72
2022/04/24 03:03:51;;;;;;;35.90;19.77;;;;;;;7.82;nan;99850.34;5098873;28;20035;-71
2022/04/24 03:06:17;;;;;;;34.47;20.35;;;;;;;7.84;nan;99860.63;5104016;27;20577;-71
2022/04/24 03:08:42;;;;;;;33.13;20.17;;;;;;;7.83;nan;99861.66;5103061;28;20032;-71
2022/04/24 03:11:08;;;;;;;35.28;19.42;;;;;;;7.73;nan;99849.03;5100415;27;20031;-72
2022/04/24 03:13:33;;;;;;;36.55;20.65;;;;;;;7.85;nan;99859.56;5102761;27;20027;-71
2022/04/24 03:15:59;;;;;;;35.45;19.85;;;;;;;7.74;nan;99842.78;5084171;28;20509;-72
2022/04/24 03:18:24;;;;;;;33.78;19.42;;;;;;;7.85;nan;99859.56;5113969;27;20027;-71
2022/04/24 03:20:50;;;;;;;31.67;18.73;;;;;;;7.89;nan;99864.16;5095853;28;20548;-71
2022/04/24 03:23:15;;;;;;;34.42;18.90;;;;;;;7.84;nan;99856.16;5102097;27;20064;-72
2022/04/24 03:25:41;;;;;;;34.60;18.40;;;;;;;7.78;nan;99854.44;5096662;28;20035;-71
2022/04/24 03:28:09;;;;;;;33.13;18.25;;;;;;;7.76;nan;99853.84;5085603;28;20058;-71
2022/04/24 03:30:35;;;;;;;30.77;18.65;;;;;;;7.77;nan;99867.75;5100099;27;20044;-71
2022/04/24 03:33:01;;;;;;;36.75;18.65;;;;;;;7.76;nan;99856.47;5101949;28;20032;-70
2022/04/24 03:35:26;;;;;;;30.92;19.10;;;;;;;7.65;nan;99852.75;5107560;27;20369;-71
2022/04/24 03:37:51;;;;;;;29.17;17.80;;;;;;;7.79;nan;99871.75;5097708;27;20118;-71
2022/04/24 03:40:19;;;;;;;28.77;18.00;;;;;;;7.78;nan;99862.31;5102545;27;20031;-72
2022/04/24 03:42:45;;;;;;;30.52;18.35;;;;;;;7.75;nan;99856.69;5077263;28;20067;-72
2022/04/24 03:45:11;;;;;;;34.13;18.17;;;;;;;7.83;nan;99864.25;5102110;27;20473;-71
2022/04/24 03:47:37;;;;;;;33.03;18.33;;;;;;;7.76;nan;99858.28;5100409;28;20119;-71
2022/04/24 03:50:04;;;;;;;27.67;17.15;;;;;;;7.67;nan;99850.72;5106086;27;20705;-71
2022/04/24 03:52:30;;;;;;;34.97;17.27;;;;;;;7.60;nan;99843.94;5108860;28;20039;-72
2022/04/24 03:54:56;;;;;;;30.35;17.83;;;;;;;7.67;nan;99850.72;5106378;27;20473;-70
2022/04/24 03:57:21;;;;;;;25.65;16.60;;;;;;;7.70;nan;99859.16;5099857;27;20502;-69
2022/04/24 03:59:47;;;;;;;28.10;17.02;;;;;;;7.63;nan;99848.75;5097288;28;20517;-70
2022/04/24 04:02:12;;;;;;;28.67;16.55;;;;;;;7.73;nan;99862.13;5116001;27;20449;-71
2022/04/24 04:04:37;;;;;;;26.67;16.02;;;;;;;7.64;nan;99840.69;5107674;27;20043;-69
2022/04/24 04:07:04;;;;;;;29.45;16.48;;;;;;;7.71;nan;99858.97;5110825;27;20359;-69
2022/04/24 04:09:30;;;;;;;30.15;16.48;;;;;;;7.70;nan;99853.91;5105930;28;20529;-69
2022/04/24 04:11:55;;;;;;;24.60;15.52;;;;;;;7.72;nan;99846.66;5080840;28;20032;-69
2022/04/24 04:14:24;;;;;;;25.48;15.55;;;;;;;7.67;nan;99849.91;5100774;27;20832;-68
2022/04/24 04:16:49;;;;;;;28.90;16.08;;;;;;;7.70;nan;99854.72;5116227;27;20035;-69
2022/04/24 04:19:15;;;;;;;26.95;16.08;;;;;;;7.78;nan;99867.53;5101072;27;20577;-69
2022/04/24 04:21:42;;;;;;;27.45;15.32;;;;;;;7.88;nan;99874.88;5092398;28;20036;-69
2022/04/24 04:24:09;;;;;;;26.95;15.77;;;;;;;7.92;nan;99877.84;5104279;27;20036;-69
2022/04/24 04:26:35;;;;;;;25.73;14.73;;;;;;;7.95;nan;99874.78;5106166;28;20053;-69
2022/04/24 04:29:00;;;;;;;25.55;15.15;;;;;;;7.91;nan;99868.41;5097090;28;20051;-71
2022/04/24 04:31:26;;;;;;;27.95;15.27;;;;;;;7.91;nan;99866.56;5095124;27;20389;-71
2022/04/24 04:33:52;;;;;;;26.98;14.13;;;;;;;7.99;nan;99870.72;5096985;27;20490;-68
2022/04/24 04:36:17;;;;;;;25.77;14.55;;;;;;;8.02;nan;99878.13;5103513;27;20046;-69
2022/04/24 04:38:43;;;;;;;23.17;14.82;;;;;;;8.07;nan;99873.06;5103426;28;20047;-69
2022/04/24 04:41:08;;;;;;;28.42;15.73;;;;;;;8.01;nan;99856.34;5095538;27;20033;-71
2022/04/24 04:43:34;;;;;;;27.42;15.20;;;;;;;8.07;nan;99862.56;5075564;28;20494;-69
2022/04/24 04:45:59;;;;;;;25.52;15.15;;;;;;;8.21;nan;99879.72;5120342;27;20028;-69
2022/04/24 04:48:26;;;;;;;22.23;14.65;;;;;;;8.25;nan;99869.56;5104012;27;20379;-70
2022/04/24 04:50:51;;;;;;;24.33;14.32;;;;;;;8.29;nan;99875.97;5102269;27;20035;-70
2022/04/24 04:53:17;;;;;;;23.73;14.93;;;;;;;8.24;nan;99860.13;5089066;28;20641;-70
2022/04/24 04:55:42;;;;;;;22.10;14.43;;;;;;;8.37;nan;99878.28;5107067;28;20115;-69
2022/04/24 04:58:08;;;;;;;24.67;15.20;;;;;;;8.44;nan;99875.59;5083537;28;20509;-69
2022/04/24 05:00:33;;;;;;;24.02;14.13;;;;;;;8.50;nan;99886.00;5109693;28;20035;-72
2022/04/24 05:02:59;;;;;;;23.60;14.25;;;;;;;8.56;nan;99884.31;5094083;28;20042;-71
2022/04/24 05:05:24;;;;;;;24.17;14.38;;;;;;;8.52;nan;99877.91;5092762;28;20031;-70
2022/04/24 05:07:51;;;;;;;29.02;14.63;;;;;;;8.65;nan;99876.94;5089892;28;20447;-68
2022/04/24 05:10:17;;;;;;;24.38;14.63;;;;;;;8.73;nan;99885.25;5094448;28;20085;-69
2022/04/24 05:12:43;;;;;;;23.35;14.18;;;;;;;8.76;nan;99877.97;5075162;28;20036;-68
2022/04/24 05:15:13;;;;;;;25.45;14.15;;;;;;;8.89;nan;99888.28;5075340;28;20489;-70
2022/04/24 05:17:39;;;;;;;25.75;14.15;;;;;;;8.97;nan;99885.31;5098680;28;20111;-71
2022/04/24 05:20:06;;;;;;;24.55;14.15;;;;;;;9.00;nan;99879.59;5092554;28;20051;-69
2022/04/24 05:22:32;;;;;;;20.20;13.23;;;;;;;9.09;nan;99887.94;5100817;28;20093;-69
2022/04/24 05:24:57;;;;;;;25.15;13.85;;;;;;;9.16;nan;99886.00;5107253;28;20035;-71
2022/04/24 05:27:23;;;;;;;22.83;13.40;;;;;;;9.24;nan;99879.59;5106046;28;20660;-69
2022/04/24 05:29:48;;;;;;;26.65;14.07;;;;;;;9.37;nan;99890.69;5087371;28;20035;-69
2022/04/24 05:32:17;;;;;;;23.33;13.40;;;;;;;9.43;nan;99893.44;5108413;28;20019;-69
2022/04/24 05:34:43;;;;;;;18.00;12.15;;;;;;;9.44;nan;99885.31;5103720;28;20530;-69
2022/04/24 05:37:09;;;;;;;19.38;12.98;;;;;;;9.16;nan;99826.38;5105974;28;20039;-69
2022/04/24 05:39:35;;;;;;;21.10;12.32;;;;;;;9.50;nan;99876.50;5107428;27;20030;-69
2022/04/24 05:42:01;;;;;;;20.17;13.20;;;;;;;9.61;nan;99880.16;5098281;27;20035;-70
2022/04/24 05:44:26;;;;;;;20.45;11.95;;;;;;;9.73;nan;99895.91;5104645;28;20038;-69
2022/04/24 05:46:52;;;;;;;21.50;12.55;;;;;;;9.72;nan;99883.78;5115965;28;20044;-70
2022/04/24 05:49:18;;;;;;;18.33;11.93;;;;;;;9.79;nan;99884.47;5087006;28;20434;-71
2022/04/24 05:51:44;;;;;;;19.58;12.20;;;;;;;9.75;nan;99871.00;5088527;28;20028;-70
2022/04/24 05:54:10;;;;;;;19.85;12.10;;;;;;;9.82;nan;99876.13;5101308;28;20040;-70
2022/04/24 05:56:38;;;;;;;20.48;11.40;;;;;;;9.94;nan;99890.03;5094939;28;20525;-71
2022/04/24 05:59:08;;;;;;;20.83;12.30;;;;;;;10.04;nan;99901.81;5103605;28;20071;-72
2022/04/24 06:01:34;;;;;;;18.02;12.38;;;;;;;9.94;nan;99878.72;5088813;28;20039;-69
2022/04/24 06:04:00;;;;;;;17.17;11.80;;;;;;;10.14;nan;99900.16;5101845;28;20043;-72
2022/04/24 06:06:25;;;;;;;19.42;11.75;;;;;;;10.19;nan;99899.44;5096938;28;20040;-74
2022/04/24 06:08:51;;;;;;;21.83;12.27;;;;;;;;;;5071595;28;20036;-71
2022/04/24 06:11:17;;;;;;;19.95;11.82;;;;;;;;;;5088919;28;20047;-71
2022/04/24 06:13:44;;;;;;;21.35;11.43;;;;;;;;;;5091004;28;20032;-70
2022/04/24 06:16:09;;;;;;;15.93;10.85;;;;;;;;;;5107366;28;20046;-72
2022/04/24 06:18:34;;;;;;;19.58;11.48;;;;;;;;;;5109305;28;20035;-72
2022/04/24 06:20:59;;;;;;;20.43;11.63;;;;;;;;;;5105879;28;20075;-71
2022/04/24 06:23:27;;;;;;;17.70;10.70;;;;;;;;;;5097396;28;20035;-72
2022/04/24 06:25:52;;;;;;;17.80;11.10;;;;;;;;;;5094077;28;20043;-73
2022/04/24 06:28:17;;;;;;;21.23;11.47;;;;;;;;;;5094766;28;20036;-70
2022/04/24 06:30:43;;;;;;;15.07;10.70;;;;;;;;;;5059280;28;20296;-71
2022/04/24 06:33:08;;;;;;;16.13;10.65;;;;;;;;;;5096735;28;20178;-70
2022/04/24 06:35:34;;;;;;;15.82;10.90;;;;;;;;;;5108962;27;20031;-68
2022/04/24 06:37:59;;;;;;;16.45;10.00;;;;;;;;;;5100765;28;20879;-71
2022/04/24 06:40:25;;;;;;;16.38;10.95;;;;;;;;;;5109613;27;20046;-70
2022/04/24 06:42:54;;;;;;;18.95;10.70;;;;;;;;;;5101223;28;20051;-68
2022/04/24 06:45:27;;;;;;;17.20;10.63;;;;;;;;;;5111049;27;20074;-71
2022/04/24 06:48:13;;;;;;;15.98;10.48;;;;;;;;;;5096994;28;20032;-70
2022/04/24 06:50:39;;;;;;;17.80;9.25;;;;;;;;;;5080030;28;20059;-70
2022/04/24 06:53:06;;;;;;;17.95;9.38;;;;;;;;;;5102903;27;20036;-71
2022/04/24 06:55:33;;;;;;;14.43;9.18;;;;;;;;;;5103271;28;20038;-69
2022/04/24 06:57:59;;;;;;;11.90;8.13;;;;;;;;;;5109027;27;20136;-71
2022/04/24 07:00:25;;;;;;;12.45;7.85;;;;;;;;;;5105108;28;20040;-70
2022/04/24 07:02:50;;;;;;;12.68;7.78;;;;;;;;;;5109037;27;20047;-69
2022/04/24 07:05:16;;;;;;;11.60;7.32;;;;;;;;;;5092122;28;20036;-71
2022/04/24 07:07:41;;;;;;;9.95;6.82;;;;;;;;;;5130936;27;20041;-71
2022/04/24 07:10:07;;;;;;;9.02;6.43;;;;;;;;;;5106024;27;20080;-70
2022/04/24 07:12:43;;;;;;;13.20;7.03;;;;;;;;;;5104760;28;21897;-70
2022/04/24 07:15:10;;;;;;;10.77;6.40;;;;;;;;;;5007956;28;20040;-70
2022/04/24 07:17:36;;;;;;;11.23;7.00;;;;;;;;;;5083758;28;20035;-71
2022/04/24 07:20:04;;;;;;;11.40;7.13;;;;;;;;;;5102153;27;20035;-72
2022/04/24 07:22:39;;;;;;;10.20;6.95;;;;;;;;;;5108309;28;20485;-70
2022/04/24 07:25:05;;;;;;;11.52;6.40;;;;;;;;;;5101459;27;20046;-70
2022/04/24 07:27:30;;;;;;;11.27;6.82;;;;;;;;;;5100241;27;20031;-71
2022/04/24 07:29:55;;;;;;;9.90;6.30;;;;;;;;;;5113846;28;20453;-71
2022/04/24 07:32:21;;;;;;;9.33;6.67;;;;;;;;;;5090931;28;20024;-70
2022/04/24 07:34:47;;;;;;;12.30;6.75;;;;;;;;;;5093792;28;20032;-71
2022/04/24 07:37:12;;;;;;;8.82;6.25;;;;;;;;;;5129525;27;20039;-71
2022/04/24 07:39:37;;;;;;;10.47;6.43;;;;;;;;;;5125099;27;20155;-72
2022/04/24 07:42:03;;;;;;;9.53;6.40;;;;;;;;;;5084527;28;20288;-70
2022/04/24 07:44:28;;;;;;;8.02;6.32;;;;;;;;;;5109093;27;20484;-70
2022/04/24 07:46:54;;;;;;;11.68;6.45;;;;;;;;;;5082683;28;20035;-71
2022/04/24 07:49:19;;;;;;;9.40;5.57;;;;;;;;;;5102433;27;20362;-70
2022/04/24 07:51:46;;;;;;;8.90;4.90;;;;;;;;;;5086639;28;20043;-69
2022/04/24 07:54:11;;;;;;;9.05;4.80;;;;;;;;;;5101142;27;20278;-70
2022/04/24 07:56:36;;;;;;;8.57;4.60;;;;;;;;;;5108632;27;20035;-70
2022/04/24 07:59:01;;;;;;;9.60;4.57;;;;;;;;;;5097981;28;20065;-71
2022/04/24 08:01:27;;;;;;;7.03;4.20;;;;;;;16.00;nan;99779.50;5119528;27;20030;-71
2022/04/24 08:03:52;;;;;;;6.72;3.83;;;;;;;;;;5097778;28;20027;-71
2022/04/24 08:06:17;;;;;;;5.90;3.33;;;;;;;;;;5095131;27;20478;-72
2022/04/24 08:08:43;;;;;;;5.60;3.08;;;;;;;;;;5098451;28;20032;-71
2022/04/24 08:11:08;;;;;;;8.57;3.50;;;;;;;;;;5097520;28;20480;-71
2022/04/24 08:13:33;;;;;;;3.93;3.17;;;;;;;;;;5108438;27;20268;-72
2022/04/24 08:15:59;;;;;;;5.60;2.88;;;;;;;;;;5106826;27;20603;-71
2022/04/24 08:18:25;;;;;;;6.30;3.05;;;;;;;;;;5116797;27;20794;-71
2022/04/24 08:20:50;;;;;;;4.77;2.87;;;;;;;;;;5095627;28;20071;-71
2022/04/24 08:23:16;;;;;;;5.93;2.80;;;;;;;;;;5103547;28;20298;-71
2022/04/24 08:25:41;;;;;;;8.48;3.15;;;;;;;;;;5105250;28;20028;-71
2022/04/24 08:28:10;;;;;;;6.07;2.73;;;;;;;;;;5103885;28;20097;-72
2022/04/24 08:30:37;;;;;;;4.68;2.45;;;;;;;;;;5100091;27;20275;-71
2022/04/24 08:33:03;;;;;;;3.72;2.45;;;;;;;;;;5097489;27;20032;-72
2022/04/24 08:35:29;;;;;;;7.45;3.03;;;;;;;17.64;nan;99704.91;5080933;27;20118;-71
2022/04/24 08:37:54;;;;;;;5.93;2.45;;;;;;;17.76;nan;99733.00;5096074;28;20038;-72
2022/04/24 08:40:22;;;;;;;3.30;2.25;;;;;;;;;;5096625;27;20428;-71
2022/04/24 08:42:47;;;;;;;4.47;2.50;;;;;;;;;;5098829;28;20405;-71
2022/04/24 08:45:16;;;;;;;4.28;2.40;;;;;;;18.10;nan;99780.75;5085222;28;20043;-73
2022/04/24 08:47:45;;;;;;;;;;;;;;;18.19;nan;99719.56;5107111;28;20110;-72
2022/04/24 08:50:12;;;;;;;6.65;2.33;;;;;;;;;;5108626;27;19911;-72
2022/04/24 08:52:41;;;;;;;6.07;2.50;;;;;;;18.36;nan;99729.69;5107299;28;20028;-73
2022/04/24 08:55:07;;;;;;;3.30;2.10;;;;;;;;;;5097242;27;20036;-72
2022/04/24 08:57:32;;;;;;;3.20;2.20;;;;;;;;;;5096350;27;20039;-71
2022/04/24 08:59:58;;;;;;;5.50;2.20;;;;;;;;;;5090133;28;20036;-72
2022/04/24 09:02:24;;;;;;;5.32;2.05;;;;;;;18.57;nan;99751.44;5116011;27;20096;-72
2022/04/24 09:04:49;;;;;;;4.57;2.08;;;;;;;18.63;nan;99712.97;5118999;27;20075;-72
2022/04/24 09:07:17;;;;;;;4.80;2.33;;;;;;;18.73;nan;99715.44;5090946;28;20032;-72
2022/04/24 09:09:53;;;;;;;3.97;2.05;;;;;;;18.83;nan;99728.59;5101259;27;20096;-70
2022/04/24 09:12:24;;;;;;;7.07;2.03;;;;;;;18.95;nan;99706.75;5104211;28;20503;-74
2022/04/24 09:14:55;;;;;;;4.75;2.03;;;;;;;19.01;nan;99702.91;5106978;27;20386;-73
2022/04/24 09:17:23;;;;;;;3.90;1.92;;;;;;;19.08;nan;99691.81;5107916;28;20031;-72
2022/04/24 09:19:49;;;;;;;4.97;2.10;;;;;;;19.14;nan;99682.63;5106364;27;20088;-74
2022/04/24 09:22:14;;;;;;;5.00;1.92;;;;;;;19.18;nan;99702.28;5080410;28;20401;-73
2022/04/24 09:24:49;;;;;;;3.88;1.95;;;;;;;19.26;nan;99709.59;5100369;28;20088;-73
2022/04/24 09:27:29;;;;;;;4.38;2.03;;;;;;;19.32;nan;99703.06;5083059;27;20027;-72
2022/04/24 09:29:57;;;;;;;4.07;1.75;;;;;;;;;;5110355;28;20035;-73
2022/04/24 09:32:25;;;;;;;4.85;1.77;;;;;;;19.39;nan;99678.59;5091848;28;20027;-73
2022/04/24 09:34:51;;;;;;;6.55;2.00;;;;;;;19.49;nan;99701.59;5107701;28;20032;-70
2022/04/24 09:37:17;;;;;;;6.28;2.08;;;;;;;19.51;nan;99731.47;5106961;28;20032;-70
2022/04/24 09:39:43;;;;;;;3.75;1.88;;;;;;;19.57;nan;99623.47;5107814;28;20038;-70
2022/04/24 09:42:14;;;;;;;5.15;2.03;;;;;;;19.72;nan;99668.53;5103289;28;20043;-70
2022/04/24 09:44:52;;;;;;;7.85;2.03;;;;;;;19.84;nan;99662.63;5102080;28;20039;-70
2022/04/24 09:47:23;;;;;;;2.93;1.50;;;;;;;19.93;nan;99662.69;5103515;28;20032;-69
2022/04/24 09:49:50;;;;;;;5.53;1.60;;;;;;;;;;5088428;28;20366;-70
2022/04/24 09:52:17;;;;;;;3.70;1.48;;;;;;;20.12;nan;99660.59;5088483;28;20027;-70
2022/04/24 09:54:46;;;;;;;7.07;1.75;;;;;;;20.22;nan;99670.25;5104414;28;20102;-70
2022/04/24 09:57:13;;;;;;;4.20;1.70;;;;;;;20.26;nan;99659.75;5092758;28;20059;-69
2022/04/24 09:59:41;;;;;;;2.58;1.58;;;;;;;20.34;nan;99675.03;5109364;28;20031;-69
2022/04/24 10:02:08;;;;;;;3.20;1.70;;;;;;;20.37;nan;99642.31;5109733;27;20028;-70
2022/04/24 10:04:40;;;;;;;3.15;1.63;;;;;;;20.44;nan;99664.06;5108686;28;20036;-68
2022/04/24 10:07:08;;;;;;;2.45;1.58;;;;;;;20.45;nan;99697.75;5095763;28;20036;-70
2022/04/24 10:09:36;;;;;;;3.90;1.40;;;;;;;20.53;nan;99659.53;5091641;27;20050;-70
2022/04/24 10:12:04;;;;;;;5.22;1.40;;;;;;;20.58;nan;99656.75;5102858;28;20389;-69
2022/04/24 10:14:30;;;;;;;6.05;1.58;;;;;;;20.67;nan;99693.44;5113448;27;20075;-68
2022/04/24 10:17:26;;;;;;;2.58;1.63;;;;;;;20.72;nan;99656.63;5101866;28;20028;-69
2022/04/24 10:20:18;;;;;;;6.50;1.85;;;;;;;20.78;nan;99659.94;5113161;27;20047;-70
2022/04/24 10:22:46;;;;;;;4.43;1.40;;;;;;;;;;5115446;27;20027;-69
2022/04/24 10:25:13;;;;;;;4.38;1.30;;;;;;;20.87;nan;99702.78;5087060;28;20513;-71
2022/04/24 10:27:40;;;;;;;4.63;2.05;;;;;;;20.86;nan;99683.28;5092538;28;20084;-70
2022/04/24 10:30:06;;;;;;;4.32;1.35;;;;;;;20.95;nan;99635.91;5104059;28;20793;-71
2022/04/24 10:32:32;;;;;;;2.10;1.30;;;;;;;21.01;nan;99658.72;5087670;28;20541;-70
2022/04/24 10:34:59;;;;;;;3.25;1.20;;;;;;;21.07;nan;99645.19;5100537;27;20040;-69
2022/04/24 10:37:32;;;;;;;3.95;1.35;;;;;;;21.13;nan;99633.25;5100274;28;20093;-70
2022/04/24 10:39:58;;;;;;;4.78;1.50;;;;;;;21.18;nan;99647.25;5112108;27;20042;-68
2022/04/24 10:42:35;;;;;;;3.35;1.52;;;;;;;21.27;nan;99623.16;5096132;28;20036;-71
2022/04/24 10:45:14;;;;;;;3.88;1.50;;;;;;;21.35;nan;99633.09;5090445;28;20036;-70
2022/04/24 10:47:48;;;;;;;3.85;1.50;;;;;;;21.47;nan;99661.94;5086787;28;20036;-73
2022/04/24 10:50:18;;;;;;;3.67;1.38;;;;;;;21.53;nan;99658.03;5083708;28;20028;-72
2022/04/24 10:52:44;;;;;;;3.92;1.67;;;;;;;21.59;nan;99654.06;5084106;28;20024;-68
2022/04/24 10:55:12;;;;;;;3.22;2.00;;;;;;;;;;5109051;28;20097;-70
2022/04/24 10:57:54;;;;;;;4.05;1.58;;;;;;;21.68;nan;99662.09;5089156;28;20036;-70
2022/04/24 11:00:22;;;;;;;3.05;1.40;;;;;;;;;;5080105;28;20048;-71
2022/04/24 11:02:49;;;;;;;4.20;1.27;;;;;;;21.68;nan;99654.06;5083174;28;20036;-73
2022/04/24 11:05:20;;;;;;;5.18;1.52;;;;;;;21.70;nan;99643.03;5096117;28;20024;-70
2022/04/24 11:07:46;;;;;;;2.47;1.10;;;;;;;;;;5109226;28;20040;-68
2022/04/24 11:10:14;;;;;;;2.88;1.33;;;;;;;21.74;nan;99642.09;5101739;28;20100;-70
2022/04/24 11:12:40;;;;;;;5.85;1.50;;;;;;;21.83;nan;99650.88;5099356;28;20028;-69
2022/04/24 11:15:08;;;;;;;4.25;1.58;;;;;;;21.85;nan;99621.09;5084050;28;20032;-72
2022/04/24 11:17:34;;;;;;;2.50;1.17;;;;;;;21.87;nan;99616.97;5081782;28;20127;-72
2022/04/24 11:20:03;;;;;;;2.58;1.20;;;;;;;21.88;nan;99628.47;5100891;28;20048;-70
2022/04/24 11:22:31;;;;;;;5.03;1.40;;;;;;;21.90;nan;99606.72;5084189;28;20480;-72
2022/04/24 11:24:59;;;;;;;4.45;1.40;;;;;;;21.92;nan;99615.25;5085418;28;20039;-73
2022/04/24 11:27:26;;;;;;;4.57;1.20;;;;;;;21.91;nan;99603.75;5088912;28;20038;-72
2022/04/24 11:29:51;;;;;;;2.60;1.35;;;;;;;;;;5077418;28;20040;-70
2022/04/24 11:32:18;;;;;;;4.82;1.38;;;;;;;;;;5091354;28;20032;-71
2022/04/24 11:34:44;;;;;;;2.85;1.20;;;;;;;21.90;nan;99606.72;5085936;28;20089;-70
2022/04/24 11:37:10;;;;;;;2.88;1.50;;;;;;;21.85;nan;99627.22;5088924;28;20043;-69
2022/04/24 11:39:39;;;;;;;3.35;1.17;;;;;;;21.82;nan;99643.16;5086478;28;20028;-70
2022/04/24 11:42:04;;;;;;;5.97;1.40;;;;;;;21.75;nan;99611.50;5094316;28;20108;-71
2022/04/24 11:50:15;;;;;;;4.03;1.40;;;;;;;21.94;nan;99597.72;5110978;27;20024;-71
2022/04/24 11:52:43;;;;;;;4.50;1.48;;;;;;;22.03;nan;99611.91;5099517;27;20463;-71
2022/04/24 11:55:13;;;;;;;2.28;1.38;;;;;;;22.09;nan;99599.09;5106883;28;20031;-70
2022/04/24 11:57:38;;;;;;;3.58;1.65;;;;;;;22.18;nan;99631.25;5108437;27;20046;-69
2022/04/24 12:00:08;;;;;;;7.18;1.30;;;;;;;22.26;nan;99598.25;5089956;28;20485;-70
2022/04/24 12:02:35;;;;;;;3.67;1.40;;;;;;;22.34;nan;99626.16;5107624;27;20100;-70
2022/04/24 12:05:00;;;;;;;3.67;1.30;;;;;;;22.46;nan;99559.19;5098417;27;20032;-68
2022/04/24 12:07:32;;;;;;;3.35;1.35;;;;;;;22.56;nan;99600.97;5124401;27;20035;-69
2022/04/24 12:10:02;;;;;;;4.85;1.38;;;;;;;;;;5109055;27;20036;-69
2022/04/24 12:12:28;;;;;;;4.13;1.40;;;;;;;22.71;nan;99573.56;5108885;28;20036;-70
2022/04/24 12:14:54;;;;;;;2.25;1.25;;;;;;;22.71;nan;99568.97;5110096;28;20057;-70
2022/04/24 12:17:21;;;;;;;3.50;1.50;;;;;;;22.81;nan;99502.59;5110602;28;20093;-69
2022/04/24 12:19:54;;;;;;;5.38;1.23;;;;;;;22.94;nan;99568.66;5124561;27;20035;-68
2022/04/24 12:22:32;;;;;;;4.35;1.42;;;;;;;23.01;nan;99531.34;5095265;28;20110;-70
2022/04/24 12:25:11;;;;;;;4.35;1.42;;;;;;;23.04;nan;99549.50;5092443;28;20036;-68